Red Hook, New York
Current Conditions -  °F | °C
As of 7:53 PM on Sunday 23 Nov 2014 (Local Time) from KPOU Reporting Station
Clear Clear  
Wind Chill: 44°   Ceiling: Unl
Heat Index: 48°   Visibility: 10mi
Dew Point: 27°   Wind: 8mph
Humidity: 44%   Direction: 130°SE
Pressure: 30.09"   Gusts: NA
Location:  42°N, 73.88°W
Report Text: KPOU 240053Z 13007KT 10SM CLR 09/M03 A3009 RMK AO2 SLP188 T00891028
Loading
Personal Weather Stations






























Interactive Weather Map New forecast layout! Learn more

10-Day Weather Forecast

Advertisements
Track Severe Weather on mobile